createdAt,value
2023-04-19T00:00:23.633Z,9.2085
2023-04-19T00:01:24.677Z,9.1849
2023-04-19T00:02:26.276Z,9.1769
2023-04-19T00:03:28.069Z,9.2026
2023-04-19T00:04:29.790Z,9.1587
2023-04-19T00:05:31.739Z,9.1594
2023-04-19T00:06:32.997Z,9.1851
2023-04-19T00:07:34.510Z,9.1627
2023-04-19T00:08:35.619Z,9.1621
2023-04-19T00:09:37.851Z,9.1449
2023-04-19T00:10:38.859Z,9.1102
2023-04-19T00:11:39.946Z,9.0772
2023-04-19T00:12:40.964Z,9.1269
2023-04-19T00:13:41.988Z,9.1576
2023-04-19T00:14:43.088Z,9.1358
2023-04-19T00:15:44.205Z,9.1183
2023-04-19T00:16:45.273Z,9.0998
2023-04-19T00:17:46.452Z,9.1222
2023-04-19T00:18:47.478Z,9.1452
2023-04-19T00:19:48.662Z,9.1419
2023-04-19T00:20:49.720Z,9.1577
2023-04-19T00:21:50.737Z,9.1476
2023-04-19T00:22:51.770Z,9.1224
2023-04-19T00:23:52.815Z,9.1151
2023-04-19T00:24:53.876Z,9.1135
2023-04-19T00:25:54.937Z,9.1049
2023-04-19T00:26:55.920Z,9.0923
2023-04-19T00:27:56.937Z,9.0937
2023-04-19T00:28:57.990Z,9.1280
2023-04-19T00:29:58.964Z,9.1011
2023-04-19T00:31:00.108Z,9.1065
2023-04-19T00:32:01.158Z,9.1239
2023-04-19T00:33:02.393Z,9.1062
2023-04-19T00:34:03.555Z,9.1220
2023-04-19T00:35:04.700Z,9.1430
2023-04-19T00:36:05.727Z,9.1363
2023-04-19T00:37:07.013Z,9.1081
2023-04-19T00:38:08.207Z,9.1153
2023-04-19T00:39:09.266Z,9.0997
2023-04-19T00:40:11.350Z,9.1112
2023-04-19T00:41:12.435Z,9.0937
2023-04-19T00:42:13.518Z,9.1008
2023-04-19T00:43:14.584Z,9.1032
2023-04-19T00:44:15.852Z,9.0899
2023-04-19T00:45:17.414Z,9.0979
2023-04-19T00:46:18.496Z,9.0681
2023-04-19T00:47:19.569Z,9.1227
2023-04-19T00:48:20.678Z,9.0815
2023-04-19T00:49:21.651Z,9.0821
2023-04-19T00:50:22.750Z,9.1027
2023-04-19T00:51:23.910Z,9.1077
2023-04-19T00:52:24.981Z,9.1338
2023-04-19T00:53:26.023Z,9.1010
2023-04-19T00:54:27.082Z,9.1077
2023-04-19T00:55:28.104Z,9.0826
2023-04-19T00:56:29.177Z,9.1144
2023-04-19T00:57:30.166Z,9.1049
2023-04-19T00:58:31.252Z,9.1126
2023-04-19T00:59:32.269Z,9.1022
2023-04-19T01:00:33.305Z,9.1182
2023-04-19T01:01:34.463Z,9.1355
2023-04-19T01:02:35.748Z,9.1288
2023-04-19T01:03:37.363Z,9.1156
2023-04-19T01:04:39.363Z,9.1178
2023-04-19T01:05:40.495Z,9.1005
2023-04-19T01:06:41.572Z,9.0979
2023-04-19T01:07:42.616Z,9.0692
2023-04-19T01:08:43.665Z,9.0862
2023-04-19T01:09:44.738Z,9.0515
2023-04-19T01:10:45.769Z,9.0755
2023-04-19T01:11:46.917Z,9.0800
2023-04-19T01:12:47.974Z,9.0692
2023-04-19T01:13:49.072Z,9.0758
2023-04-19T01:14:50.092Z,9.0979
2023-04-19T01:15:51.169Z,9.0780
2023-04-19T01:16:52.186Z,9.0635
2023-04-19T01:17:53.304Z,9.0541
2023-04-19T01:18:54.370Z,9.0119
2023-04-19T01:19:55.428Z,9.0471
2023-04-19T01:20:56.440Z,9.0245
2023-04-19T01:21:57.487Z,9.0529
2023-04-19T01:22:58.503Z,9.0450
2023-04-19T01:23:59.540Z,9.0193
2023-04-19T01:25:00.579Z,9.0377
2023-04-19T01:26:01.604Z,9.0151
2023-04-19T01:27:02.684Z,9.0251
2023-04-19T01:28:03.750Z,9.0234
2023-04-19T01:29:04.792Z,9.0214
2023-04-19T01:30:05.813Z,9.0362
2023-04-19T01:31:06.911Z,9.0170
2023-04-19T01:32:08.046Z,8.9788
2023-04-19T01:33:09.149Z,8.9991
2023-04-19T01:34:10.177Z,9.0045
2023-04-19T01:35:11.298Z,8.9694
2023-04-19T01:36:12.348Z,9.0018
2023-04-19T01:37:13.430Z,8.9877
2023-04-19T01:38:14.602Z,8.9820
2023-04-19T01:39:15.785Z,9.0178
2023-04-19T01:40:16.919Z,9.0058
2023-04-19T01:41:17.957Z,9.0072
2023-04-19T01:42:19.098Z,8.9808
2023-04-19T01:43:20.184Z,8.9741
2023-04-19T01:44:21.222Z,8.9825
2023-04-19T01:45:22.267Z,8.9597
2023-04-19T01:46:23.345Z,8.9733
2023-04-19T01:47:24.423Z,8.9596
2023-04-19T01:48:25.472Z,8.9230
2023-04-19T01:49:26.481Z,8.9296
2023-04-19T01:50:27.517Z,8.9654
2023-04-19T01:51:28.557Z,8.9282
2023-04-19T01:52:29.653Z,8.9777
2023-04-19T01:53:30.696Z,8.9455
2023-04-19T01:54:31.715Z,8.9076
2023-04-19T01:55:32.750Z,8.9296
2023-04-19T01:56:33.751Z,8.9154
2023-04-19T01:57:34.851Z,8.9018
2023-04-19T01:58:35.866Z,8.8543
2023-04-19T01:59:36.941Z,8.8668
2023-04-19T02:00:39.045Z,8.8691
2023-04-19T02:01:40.089Z,8.8685
2023-04-19T02:02:41.309Z,8.8671
2023-04-19T02:03:42.864Z,8.8765
2023-04-19T02:04:44.587Z,8.8755
2023-04-19T02:05:45.628Z,8.8661
2023-04-19T02:06:46.642Z,8.8528
2023-04-19T02:07:47.727Z,8.8631
2023-04-19T02:08:48.708Z,8.8715
2023-04-19T02:09:49.820Z,8.8702
2023-04-19T02:10:50.955Z,8.8718
2023-04-19T02:11:52.350Z,8.8608
2023-04-19T02:12:53.381Z,8.8759
2023-04-19T02:13:54.420Z,8.8963
2023-04-19T02:14:55.516Z,8.8848
2023-04-19T02:15:56.620Z,8.8887
2023-04-19T02:16:57.880Z,8.9086
2023-04-19T02:17:59.138Z,8.9048
2023-04-19T02:19:00.184Z,8.9108
2023-04-19T02:20:01.198Z,8.9052
2023-04-19T02:21:02.287Z,8.9195
2023-04-19T02:22:03.372Z,8.9305
2023-04-19T02:23:04.440Z,8.9374
2023-04-19T02:24:05.512Z,8.9347
2023-04-19T02:25:06.603Z,8.9379
2023-04-19T02:26:07.653Z,8.9476
2023-04-19T02:27:08.636Z,8.9185
2023-04-19T02:28:09.756Z,8.9308
2023-04-19T02:29:10.835Z,8.9366
2023-04-19T02:30:11.992Z,8.9576
2023-04-19T02:31:13.050Z,8.9621
2023-04-19T02:32:14.130Z,8.9125
2023-04-19T02:33:15.204Z,8.9356
2023-04-19T02:34:16.693Z,8.9463
2023-04-19T02:35:16.595Z,8.9528
2023-04-19T02:36:17.700Z,8.9444
2023-04-19T02:37:18.765Z,8.9543
2023-04-19T02:38:19.834Z,8.9622
2023-04-19T02:39:20.898Z,8.9393
2023-04-19T02:40:21.942Z,8.9673
2023-04-19T02:41:23.005Z,8.9719
2023-04-19T02:42:24.051Z,8.9801
2023-04-19T02:43:25.165Z,8.9694
2023-04-19T02:44:26.148Z,8.9534
2023-04-19T02:45:27.197Z,8.9545
2023-04-19T02:46:28.299Z,8.9595
2023-04-19T02:47:29.464Z,8.9616
2023-04-19T02:48:30.537Z,8.9623
2023-04-19T02:49:31.585Z,8.9548
2023-04-19T02:50:32.629Z,8.9698
2023-04-19T02:51:33.633Z,8.9669
2023-04-19T02:52:34.584Z,8.9565
2023-04-19T02:53:35.632Z,8.9422
2023-04-19T02:54:36.667Z,8.9718
2023-04-19T02:55:37.768Z,8.9605
2023-04-19T02:56:38.781Z,8.9336
2023-04-19T02:57:39.835Z,8.9340
2023-04-19T02:58:41.134Z,8.9296
2023-04-19T02:59:42.166Z,8.9466
2023-04-19T03:00:43.153Z,8.9400
2023-04-19T03:01:44.218Z,8.9147
2023-04-19T03:02:45.394Z,8.9539
2023-04-19T03:03:46.654Z,8.9411
2023-04-19T03:04:47.890Z,8.9548
2023-04-19T03:05:48.942Z,8.9399
2023-04-19T03:06:49.978Z,8.9462
2023-04-19T03:07:51.033Z,8.9449
2023-04-19T03:08:52.076Z,8.9285
2023-04-19T03:09:53.159Z,8.9009
2023-04-19T03:10:54.145Z,8.9650
2023-04-19T03:11:55.216Z,8.9050
2023-04-19T03:12:56.312Z,8.9128
2023-04-19T03:13:57.331Z,8.9015
2023-04-19T03:14:58.397Z,8.8664
2023-04-19T03:15:59.505Z,8.8769
2023-04-19T03:17:00.535Z,8.8909
2023-04-19T03:18:01.617Z,8.8754
2023-04-19T03:19:02.744Z,8.8494
2023-04-19T03:20:03.813Z,8.8268
2023-04-19T03:21:04.826Z,8.8371
2023-04-19T03:22:05.886Z,8.7972
2023-04-19T03:23:06.926Z,8.8178
2023-04-19T03:24:07.955Z,8.8238
2023-04-19T03:25:09.004Z,8.8163
2023-04-19T03:26:09.994Z,8.8180
2023-04-19T03:27:11.034Z,8.8246
2023-04-19T03:28:12.039Z,8.7729
2023-04-19T03:29:13.056Z,8.8048
2023-04-19T03:30:14.116Z,8.8000
2023-04-19T03:31:15.205Z,8.8013
2023-04-19T03:32:16.249Z,8.7973
2023-04-19T03:33:17.398Z,8.7929
2023-04-19T03:34:18.478Z,8.7976
2023-04-19T03:35:19.571Z,8.8274
2023-04-19T03:36:20.538Z,8.7994
2023-04-19T03:37:21.548Z,8.8065
2023-04-19T03:38:22.631Z,8.8151
2023-04-19T03:39:23.708Z,8.7885
2023-04-19T03:40:24.754Z,8.8214
2023-04-19T03:41:25.777Z,8.8359
2023-04-19T03:42:28.860Z,8.8410
2023-04-19T03:43:28.102Z,8.8448
2023-04-19T03:44:29.170Z,8.8701
2023-04-19T03:45:30.182Z,8.8404
2023-04-19T03:46:31.290Z,8.8424
2023-04-19T03:47:32.414Z,8.8590
2023-04-19T03:48:33.568Z,8.8521
2023-04-19T03:49:34.681Z,8.8224
2023-04-19T03:50:35.691Z,8.8086
2023-04-19T03:51:36.795Z,8.8349
2023-04-19T03:52:37.823Z,8.8152
2023-04-19T03:53:38.870Z,8.8207
2023-04-19T03:54:39.965Z,8.7993
2023-04-19T03:55:41.024Z,8.8113
2023-04-19T03:56:42.018Z,8.8243
2023-04-19T03:57:43.296Z,8.8190
2023-04-19T03:58:44.503Z,8.8264
2023-04-19T03:59:45.632Z,8.8021
2023-04-19T04:00:46.670Z,8.8148
2023-04-19T04:01:48.852Z,8.8376
2023-04-19T04:02:50.262Z,8.8473
2023-04-19T04:03:52.107Z,8.8043
2023-04-19T04:04:52.129Z,8.8209
2023-04-19T04:05:53.779Z,8.8117
2023-04-19T04:06:54.780Z,8.7967
2023-04-19T04:07:55.856Z,8.8142
2023-04-19T04:08:56.911Z,8.8251
2023-04-19T04:09:57.955Z,8.7975
2023-04-19T04:10:59.024Z,8.7976
2023-04-19T04:12:00.021Z,8.7743
2023-04-19T04:13:01.137Z,8.8165
2023-04-19T04:14:02.142Z,8.7872
2023-04-19T04:15:03.251Z,8.8125
2023-04-19T04:16:04.309Z,8.8138
2023-04-19T04:17:05.375Z,8.8070
2023-04-19T04:18:08.562Z,8.8225
2023-04-19T04:19:07.942Z,8.8413
2023-04-19T04:20:09.044Z,8.8632
2023-04-19T04:21:10.148Z,8.8445
2023-04-19T04:22:11.149Z,8.8506
2023-04-19T04:23:12.235Z,8.8924
2023-04-19T04:24:13.327Z,8.8494
2023-04-19T04:25:14.921Z,8.8103
2023-04-19T04:26:15.962Z,8.8227
2023-04-19T04:27:17.011Z,8.8442
2023-04-19T04:28:18.042Z,8.8048
2023-04-19T04:29:19.067Z,8.8052
2023-04-19T04:30:20.122Z,8.8003
2023-04-19T04:31:21.171Z,8.7959
2023-04-19T04:32:23.510Z,8.8313
2023-04-19T04:33:24.968Z,8.8539
2023-04-19T04:34:26.031Z,8.8386
2023-04-19T04:35:27.082Z,8.8143
2023-04-19T04:36:28.173Z,8.8168
2023-04-19T04:37:29.228Z,8.8049
2023-04-19T04:38:30.297Z,8.8479
2023-04-19T04:39:31.424Z,8.8454
2023-04-19T04:40:32.567Z,8.8265
2023-04-19T04:41:33.652Z,8.8414
2023-04-19T04:42:35.555Z,8.8376
2023-04-19T04:43:36.617Z,8.8405
2023-04-19T04:44:37.736Z,8.8623
2023-04-19T04:45:38.803Z,8.8826
2023-04-19T04:46:39.899Z,8.8946
2023-04-19T04:47:40.984Z,8.9063
2023-04-19T04:48:42.025Z,8.8510
2023-04-19T04:49:43.015Z,8.8283
2023-04-19T04:50:44.153Z,8.8451
2023-04-19T04:51:45.146Z,8.8176
2023-04-19T04:52:46.189Z,8.8443
2023-04-19T04:53:47.417Z,8.8371
2023-04-19T04:54:48.478Z,8.8586
2023-04-19T04:55:49.549Z,8.8296
2023-04-19T04:56:50.633Z,8.8347
2023-04-19T04:57:51.681Z,8.8385
2023-04-19T04:58:52.724Z,8.8356
2023-04-19T04:59:53.778Z,8.8645
2023-04-19T05:00:54.846Z,8.8894
2023-04-19T05:01:55.886Z,8.9076
2023-04-19T05:02:57.030Z,8.8981
2023-04-19T05:03:58.136Z,8.8506
2023-04-19T05:04:59.157Z,8.8406
2023-04-19T05:06:00.225Z,8.8861
2023-04-19T05:07:01.222Z,8.8661
2023-04-19T05:08:02.343Z,8.9067
2023-04-19T05:09:03.370Z,8.9161
2023-04-19T05:10:04.424Z,8.8931
2023-04-19T05:11:05.511Z,8.9075
2023-04-19T05:12:06.507Z,8.9301
2023-04-19T05:13:07.553Z,8.8912
2023-04-19T05:14:08.609Z,8.9204
2023-04-19T05:15:09.685Z,8.9083
2023-04-19T05:16:10.698Z,8.9205
2023-04-19T05:17:11.735Z,8.9052
2023-04-19T05:18:12.759Z,8.9135
2023-04-19T05:19:13.781Z,8.8958
2023-04-19T05:20:14.850Z,8.9476
2023-04-19T05:21:15.889Z,8.9217
2023-04-19T05:22:16.894Z,8.8754
2023-04-19T05:23:17.909Z,8.8800
2023-04-19T05:24:19.129Z,8.8669
2023-04-19T05:25:20.246Z,8.8638
2023-04-19T05:26:21.297Z,8.8759
2023-04-19T05:27:22.514Z,8.8890
2023-04-19T05:28:23.582Z,8.9104
2023-04-19T05:29:24.565Z,8.9783
2023-04-19T05:30:25.535Z,8.9577
2023-04-19T05:31:26.613Z,8.9243
2023-04-19T05:32:27.759Z,8.9319
2023-04-19T05:33:28.832Z,8.9236
2023-04-19T05:34:29.872Z,8.9432
2023-04-19T05:35:30.892Z,8.9652
2023-04-19T05:36:31.923Z,8.9898
2023-04-19T05:37:32.935Z,8.9969
2023-04-19T05:38:33.977Z,9.0053
2023-04-19T05:39:34.966Z,9.0171
2023-04-19T05:40:35.981Z,9.0352
2023-04-19T05:41:37.055Z,9.0272
2023-04-19T05:42:38.076Z,8.9946
2023-04-19T05:43:39.073Z,9.0193
2023-04-19T05:44:40.158Z,8.9973
2023-04-19T05:45:41.186Z,8.9806
2023-04-19T05:46:42.250Z,9.0367
2023-04-19T05:47:43.407Z,9.0610
2023-04-19T05:48:44.446Z,9.0372
2023-04-19T05:49:45.437Z,9.0079
2023-04-19T05:50:46.397Z,9.0037
2023-04-19T05:51:47.467Z,9.0301
2023-04-19T05:52:48.478Z,9.0434
2023-04-19T05:53:49.507Z,9.0805
2023-04-19T05:54:50.501Z,9.0871
2023-04-19T05:55:51.510Z,9.0704
2023-04-19T05:56:52.556Z,9.0805
2023-04-19T05:57:53.544Z,9.0960
2023-04-19T05:58:54.572Z,9.1124
2023-04-19T05:59:55.575Z,9.0854
2023-04-19T06:00:56.584Z,9.1241
2023-04-19T06:01:57.718Z,9.1305
2023-04-19T06:02:58.946Z,9.1626
2023-04-19T06:04:00.426Z,9.1738
2023-04-19T06:05:05.140Z,9.1533
2023-04-19T06:06:03.023Z,9.1687
2023-04-19T06:07:06.205Z,9.1627
2023-04-19T06:08:06.238Z,9.1665
2023-04-19T06:09:07.246Z,9.1641
2023-04-19T06:10:08.272Z,9.1390
2023-04-19T06:11:20.105Z,9.1980
2023-04-19T06:12:10.900Z,9.1890
2023-04-19T06:13:11.891Z,9.1064
2023-04-19T06:14:12.950Z,9.1340
2023-04-19T06:15:13.994Z,9.1741
2023-04-19T06:16:15.096Z,9.1618
2023-04-19T06:17:16.157Z,9.1696
2023-04-19T06:18:18.928Z,9.1845
2023-04-19T06:19:19.022Z,9.1738
2023-04-19T06:20:20.044Z,9.1835
2023-04-19T06:21:21.002Z,9.1715
2023-04-19T06:22:22.005Z,9.1836
2023-04-19T06:23:22.976Z,9.1721
2023-04-19T06:24:23.978Z,9.1992
2023-04-19T06:25:24.933Z,9.2135
2023-04-19T06:26:25.930Z,9.2080
2023-04-19T06:27:26.980Z,9.2459
2023-04-19T06:28:27.952Z,9.2473
2023-04-19T06:29:28.939Z,9.2348
2023-04-19T06:30:29.932Z,9.2714
2023-04-19T06:31:31.042Z,9.2591
2023-04-19T06:32:32.167Z,9.2896
2023-04-19T06:33:33.252Z,9.2864
2023-04-19T06:34:34.246Z,9.3118
2023-04-19T06:35:35.266Z,9.2588
2023-04-19T06:36:36.425Z,9.2732
2023-04-19T06:37:37.461Z,9.2506
2023-04-19T06:38:38.482Z,9.2705
2023-04-19T06:39:39.505Z,9.3062
2023-04-19T06:40:40.563Z,9.3036
2023-04-19T06:41:41.558Z,9.3165
2023-04-19T06:42:42.647Z,9.3493
2023-04-19T06:43:43.673Z,9.3194
2023-04-19T06:44:44.632Z,9.3377
2023-04-19T06:45:45.688Z,9.3800
2023-04-19T06:46:46.763Z,9.3271
2023-04-19T06:47:47.764Z,9.3232
2023-04-19T06:48:48.795Z,9.2732
2023-04-19T06:49:49.805Z,9.3366
2023-04-19T06:50:50.821Z,9.3211
2023-04-19T06:51:51.814Z,9.3467
2023-04-19T06:52:52.844Z,9.2982
2023-04-19T06:53:53.914Z,9.2950
2023-04-19T06:54:54.957Z,9.2912
2023-04-19T06:55:55.970Z,9.2914
2023-04-19T06:56:57.014Z,9.2865
2023-04-19T06:57:58.076Z,9.2754
2023-04-19T06:58:59.111Z,9.3307
2023-04-19T07:00:00.127Z,9.3264
2023-04-19T07:01:01.134Z,9.3199
2023-04-19T07:02:02.277Z,9.3707
2023-04-19T07:03:03.489Z,9.3813
2023-04-19T07:04:05.555Z,9.3842
2023-04-19T07:05:07.057Z,9.3670
2023-04-19T07:06:08.064Z,9.4145
2023-04-19T07:07:09.092Z,9.4125
2023-04-19T07:08:10.095Z,9.4009
2023-04-19T07:09:11.090Z,9.4450
2023-04-19T07:10:12.094Z,9.4594
2023-04-19T07:11:13.125Z,9.4792
2023-04-19T07:12:14.185Z,9.4645
2023-04-19T07:13:15.240Z,9.5345
2023-04-19T07:14:16.532Z,9.5386
2023-04-19T07:15:18.148Z,9.5849
2023-04-19T07:16:19.243Z,9.5646
2023-04-19T07:17:20.273Z,9.5862
2023-04-19T07:18:21.294Z,9.6368
2023-04-19T07:19:22.299Z,9.6091
2023-04-19T07:20:23.379Z,9.6116
2023-04-19T07:21:24.440Z,9.6385
2023-04-19T07:22:25.472Z,9.5987
2023-04-19T07:23:27.562Z,9.6987
2023-04-19T07:24:28.637Z,9.6940
2023-04-19T07:25:29.721Z,9.6773
2023-04-19T07:26:30.852Z,9.6216
2023-04-19T07:27:31.881Z,9.6987
2023-04-19T07:28:32.873Z,9.7104
2023-04-19T07:29:33.902Z,9.6879
2023-04-19T07:30:34.869Z,9.6473
2023-04-19T07:31:35.927Z,9.6793
2023-04-19T07:32:37.093Z,9.7215
2023-04-19T07:33:38.784Z,9.7722
2023-04-19T07:34:39.779Z,9.8056
2023-04-19T07:35:41.190Z,9.7879
2023-04-19T07:36:42.206Z,9.7637
2023-04-19T07:37:43.297Z,9.7427
2023-04-19T07:38:45.400Z,9.7846
2023-04-19T07:39:46.386Z,9.7933
2023-04-19T07:40:47.364Z,9.7924
2023-04-19T07:41:48.360Z,9.7557
2023-04-19T07:42:49.409Z,9.8225
2023-04-19T07:43:50.471Z,9.8727
2023-04-19T07:44:51.441Z,9.8928
2023-04-19T07:45:52.471Z,9.9559
2023-04-19T07:46:53.501Z,9.9735
2023-04-19T07:47:55.080Z,9.9553
2023-04-19T07:48:56.130Z,9.9748
2023-04-19T07:49:57.193Z,9.9420
2023-04-19T07:50:58.228Z,9.9612
2023-04-19T07:51:59.243Z,9.9147
2023-04-19T07:53:00.247Z,9.9802
2023-04-19T07:54:01.348Z,9.9936
2023-04-19T07:55:02.651Z,9.9648
2023-04-19T07:56:03.616Z,9.8738
2023-04-19T07:57:04.676Z,9.9285
2023-04-19T07:58:05.679Z,9.9658
2023-04-19T07:59:08.829Z,9.8931
2023-04-19T08:00:08.425Z,9.8926
2023-04-19T08:01:09.430Z,9.8832
2023-04-19T08:02:10.544Z,9.9748
2023-04-19T08:03:11.967Z,9.9316
2023-04-19T08:04:13.527Z,10.0034
2023-04-19T08:05:15.711Z,10.0675
2023-04-19T08:06:16.870Z,9.9741
2023-04-19T08:07:17.854Z,10.0120
2023-04-19T08:08:18.856Z,10.0300
2023-04-19T08:09:19.889Z,10.0241
2023-04-19T08:10:22.339Z,10.0492
2023-04-19T08:11:21.222Z,9.9962
2023-04-19T08:12:34.641Z,10.0133
2023-04-19T08:13:23.861Z,10.0499
2023-04-19T08:14:34.597Z,10.0882
2023-04-19T08:15:50.997Z,10.1312
2023-04-19T08:17:01.369Z,10.1234
2023-04-19T08:17:37.079Z,10.0767
2023-04-19T08:18:31.472Z,10.1070
2023-04-19T08:19:32.502Z,10.1030
2023-04-19T08:20:33.519Z,10.0446
2023-04-19T08:21:40.575Z,10.0920
2023-04-19T08:22:36.225Z,10.1279
2023-04-19T08:23:47.243Z,10.1531
2023-04-19T08:24:38.911Z,10.1556
2023-04-19T08:25:39.929Z,10.1832
2023-04-19T08:26:40.900Z,10.1931
2023-04-19T08:27:41.832Z,10.1515
2023-04-19T08:28:43.598Z,10.2567
2023-04-19T08:29:44.645Z,10.3320
2023-04-19T08:30:45.635Z,10.2898
2023-04-19T08:31:46.669Z,10.1598
2023-04-19T08:32:47.693Z,10.1326
2023-04-19T08:33:48.759Z,10.2101
2023-04-19T08:34:49.832Z,10.2574
2023-04-19T08:35:50.827Z,10.2944
2023-04-19T08:37:02.689Z,10.3035
2023-04-19T08:37:53.434Z,10.1356
2023-04-19T08:39:04.096Z,10.1008
2023-04-19T08:39:56.063Z,10.1989
2023-04-19T08:40:57.055Z,10.0602
2023-04-19T08:42:07.087Z,10.1759
2023-04-19T08:42:59.736Z,10.1696
2023-04-19T08:44:00.771Z,10.0755
2023-04-19T08:45:25.998Z,10.1405
2023-04-19T08:46:02.657Z,10.2664
2023-04-19T08:47:03.737Z,10.1938
2023-04-19T08:48:04.868Z,10.3313
2023-04-19T08:49:06.015Z,10.3483
2023-04-19T08:50:17.531Z,10.3570
2023-04-19T08:51:09.124Z,10.2243
2023-04-19T08:52:10.103Z,10.2792
2023-04-19T08:54:11.514Z,10.1856
2023-04-19T08:55:12.630Z,10.2416
2023-04-19T08:56:21.089Z,10.3313
2023-04-19T08:57:15.488Z,10.3120
2023-04-19T08:58:28.564Z,10.3696
2023-04-19T08:59:18.794Z,10.3373
2023-04-19T09:00:19.006Z,10.2607
2023-04-19T09:01:33.989Z,10.2830
2023-04-19T09:02:21.725Z,10.2804
2023-04-19T09:03:23.147Z,10.3892
2023-04-19T09:05:25.129Z,10.5541
2023-04-19T09:06:27.008Z,10.5818
2023-04-19T09:07:28.933Z,10.5658
2023-04-19T09:08:29.969Z,10.5256
2023-04-19T09:09:36.994Z,10.5574
2023-04-19T09:10:32.593Z,10.5750
2023-04-19T09:11:33.546Z,10.6718
2023-04-19T09:12:34.496Z,10.7176
2023-04-19T09:13:35.461Z,10.8018
2023-04-19T09:14:36.460Z,10.8657
2023-04-19T09:15:37.453Z,10.9739
2023-04-19T09:16:38.554Z,11.0131
2023-04-19T09:17:39.858Z,10.9599
2023-04-19T09:18:53.380Z,11.0281
2023-04-19T09:19:42.431Z,11.1701
2023-04-19T09:20:43.384Z,11.1837
2023-04-19T09:21:44.378Z,11.2241
2023-04-19T09:22:45.440Z,11.0896
2023-04-19T09:23:46.497Z,11.0362
2023-04-19T09:25:13.951Z,11.0997
2023-04-19T09:26:48.644Z,11.2239
2023-04-19T09:27:49.594Z,11.1285
2023-04-19T09:28:50.579Z,11.1885
2023-04-19T09:29:51.520Z,11.1073
2023-04-19T09:31:02.488Z,11.1030
2023-04-19T09:31:54.189Z,11.1055
2023-04-19T09:32:55.466Z,11.0931
2023-04-19T09:33:56.451Z,11.2229
2023-04-19T09:34:57.466Z,11.2857
2023-04-19T09:35:58.469Z,11.1948
2023-04-19T09:37:11.035Z,11.1685
2023-04-19T09:38:05.849Z,11.2851
2023-04-19T09:39:01.292Z,11.1829
2023-04-19T09:40:02.280Z,11.1975
2023-04-19T09:41:03.246Z,11.2898
2023-04-19T09:42:04.271Z,11.2573
2023-04-19T09:43:17.941Z,11.3144
2023-04-19T09:44:26.871Z,11.5015
2023-04-19T09:46:09.173Z,11.2965
2023-04-19T09:47:10.162Z,11.3530
2023-04-19T09:48:11.285Z,11.3752
2023-04-19T09:49:21.236Z,11.4305
2023-04-19T09:51:15.234Z,11.4829
2023-04-19T09:52:16.626Z,11.3202
2023-04-19T09:53:17.586Z,11.2468
2023-04-19T09:54:18.529Z,11.4013
2023-04-19T09:55:26.996Z,11.3793
2023-04-19T09:56:19.499Z,11.0956
2023-04-19T09:57:20.444Z,11.2143
2023-04-19T09:58:21.358Z,11.3450
2023-04-19T09:59:22.832Z,11.4138
2023-04-19T10:00:24.052Z,11.4153
2023-04-19T10:01:25.087Z,11.4600
2023-04-19T10:02:26.173Z,11.2306
2023-04-19T10:03:27.782Z,11.1178
2023-04-19T10:05:29.699Z,10.9887
2023-04-19T10:06:40.462Z,11.1840
2023-04-19T10:07:32.447Z,10.9844
2023-04-19T10:08:33.719Z,11.0641
2023-04-19T10:09:40.051Z,11.1201
2023-04-19T10:10:41.666Z,11.2592
2023-04-19T10:11:37.590Z,11.2494
2023-04-19T10:12:59.031Z,11.2981
2023-04-19T10:13:39.556Z,11.0690
2023-04-19T10:14:40.523Z,11.0444
2023-04-19T10:15:50.216Z,11.0398
2023-04-19T10:16:43.185Z,10.8612
2023-04-19T10:17:44.272Z,10.9657
2023-04-19T10:18:45.204Z,11.0396
2023-04-19T10:19:46.180Z,11.1450
2023-04-19T10:20:47.167Z,11.0716
2023-04-19T10:21:48.111Z,10.9479
2023-04-19T10:22:49.056Z,11.1348
2023-04-19T10:23:50.020Z,11.2688
2023-04-19T10:24:50.947Z,11.1411
2023-04-19T10:25:51.895Z,10.9743
2023-04-19T10:26:52.919Z,10.8423
2023-04-19T10:27:53.921Z,11.0059
2023-04-19T10:28:54.874Z,11.1088
2023-04-19T10:29:55.846Z,11.2187
2023-04-19T10:30:56.806Z,11.1194
2023-04-19T10:31:57.859Z,11.0246
2023-04-19T10:32:58.807Z,11.0235
2023-04-19T10:33:59.808Z,11.1036
2023-04-19T10:35:00.775Z,11.4629
2023-04-19T10:36:01.698Z,11.6083
2023-04-19T10:37:02.752Z,11.6571
2023-04-19T10:38:03.685Z,11.8346
2023-04-19T10:39:04.659Z,11.9269
2023-04-19T10:40:05.584Z,11.7061
2023-04-19T10:41:06.513Z,11.6658
2023-04-19T10:42:07.446Z,11.5383
2023-04-19T10:43:08.385Z,11.5450
2023-04-19T10:44:09.424Z,11.6059
2023-04-19T10:45:10.377Z,11.5579
2023-04-19T10:46:11.372Z,11.5946
2023-04-19T10:47:14.584Z,11.5175
2023-04-19T10:48:13.604Z,11.4919
2023-04-19T10:49:14.914Z,11.6045
2023-04-19T10:50:14.640Z,11.5627
2023-04-19T10:51:15.604Z,11.4179
2023-04-19T10:52:16.580Z,11.5957
2023-04-19T10:53:17.576Z,11.5198
2023-04-19T10:54:18.514Z,11.5032
2023-04-19T10:55:19.445Z,11.5643
2023-04-19T10:56:20.374Z,11.4367
2023-04-19T10:57:21.427Z,11.4171
2023-04-19T10:58:22.397Z,11.4878
2023-04-19T10:59:23.342Z,11.3620
2023-04-19T11:00:24.357Z,11.2593
2023-04-19T11:01:25.369Z,11.3647
2023-04-19T11:02:26.561Z,11.3057
2023-04-19T11:03:27.743Z,11.4270
2023-04-19T11:04:29.137Z,11.2923
2023-04-19T11:05:30.192Z,11.4662
2023-04-19T11:06:31.245Z,11.4015
2023-04-19T11:07:32.183Z,11.4688
2023-04-19T11:08:33.107Z,11.2456
2023-04-19T11:09:34.093Z,11.2546
2023-04-19T11:10:35.082Z,11.4130
2023-04-19T11:11:36.158Z,11.4094
2023-04-19T11:12:37.148Z,11.4228
2023-04-19T11:13:38.072Z,11.4482
2023-04-19T11:14:39.029Z,11.3361
2023-04-19T11:15:40.065Z,11.3008
2023-04-19T11:16:46.129Z,11.3535
2023-04-19T11:17:41.264Z,11.4678
2023-04-19T11:18:42.212Z,11.3296
2023-04-19T11:19:43.124Z,11.3570
2023-04-19T11:20:44.122Z,11.4392
2023-04-19T11:21:45.074Z,11.3535
2023-04-19T11:22:45.990Z,11.3101
2023-04-19T11:23:47.921Z,11.3629
2023-04-19T11:24:48.852Z,11.4046
2023-04-19T11:25:49.817Z,11.4507
2023-04-19T11:26:51.682Z,11.4456
2023-04-19T11:27:51.926Z,11.6560
2023-04-19T11:28:52.844Z,11.7216
2023-04-19T11:29:53.806Z,11.9050
2023-04-19T11:30:54.785Z,11.8463
2023-04-19T11:31:55.752Z,11.7392
2023-04-19T11:32:56.792Z,11.8000
2023-04-19T11:33:57.990Z,12.0109
2023-04-19T11:34:58.876Z,11.8434
2023-04-19T11:35:59.834Z,11.8123
2023-04-19T11:37:00.821Z,11.7764
2023-04-19T11:38:01.789Z,11.7876
2023-04-19T11:39:02.841Z,12.0006
2023-04-19T11:40:04.877Z,12.0586
2023-04-19T11:41:04.236Z,11.9577
2023-04-19T11:42:05.209Z,11.9383
2023-04-19T11:43:06.220Z,11.9148
2023-04-19T11:44:07.182Z,11.8987
2023-04-19T11:45:18.627Z,11.8499
2023-04-19T11:46:09.793Z,11.7367
2023-04-19T11:47:10.808Z,11.8486
2023-04-19T11:48:11.777Z,11.6364
2023-04-19T11:49:12.842Z,11.6603
2023-04-19T11:50:13.920Z,11.7347
2023-04-19T11:51:14.825Z,11.8768
2023-04-19T11:52:15.841Z,11.9296
2023-04-19T11:53:16.813Z,11.9739
2023-04-19T11:54:18.055Z,11.7510
2023-04-19T11:55:19.575Z,11.4448
2023-04-19T11:56:20.555Z,11.5839
2023-04-19T11:57:21.764Z,11.6693
2023-04-19T11:58:22.785Z,11.7577
2023-04-19T11:59:23.741Z,11.7935
2023-04-19T12:00:24.703Z,11.9554
2023-04-19T12:01:25.724Z,11.9122
2023-04-19T12:02:26.879Z,11.6669
2023-04-19T12:03:28.448Z,11.6258
2023-04-19T12:04:30.094Z,11.7248
2023-04-19T12:05:31.503Z,11.7056
2023-04-19T12:06:32.862Z,11.6119
2023-04-19T12:07:33.895Z,11.5903
2023-04-19T12:08:34.902Z,11.6244
2023-04-19T12:09:35.881Z,11.5485
2023-04-19T12:10:36.828Z,11.5737
2023-04-19T12:11:38.842Z,11.5225
2023-04-19T12:12:39.796Z,11.6280
2023-04-19T12:13:40.752Z,11.7897
2023-04-19T12:14:41.671Z,11.8287
2023-04-19T12:15:42.641Z,11.6932
2023-04-19T12:16:43.651Z,11.6313
2023-04-19T12:17:54.611Z,11.5856
2023-04-19T12:18:46.177Z,11.6413
2023-04-19T12:19:47.449Z,11.6492
2023-04-19T12:20:48.351Z,11.8382
2023-04-19T12:21:49.284Z,11.8927
2023-04-19T12:22:50.276Z,11.9348
2023-04-19T12:23:51.276Z,11.8205
2023-04-19T12:24:52.232Z,11.7299
2023-04-19T12:25:53.167Z,11.6658
2023-04-19T12:26:55.775Z,11.6705
2023-04-19T12:27:55.175Z,11.6598
2023-04-19T12:28:56.170Z,11.5479
2023-04-19T12:29:57.242Z,11.5005
2023-04-19T12:30:58.234Z,11.5301
2023-04-19T12:31:59.213Z,11.5729
2023-04-19T12:33:00.222Z,11.5830
2023-04-19T12:34:01.209Z,11.5665
2023-04-19T12:35:02.164Z,11.6200
2023-04-19T12:36:03.128Z,11.5522
2023-04-19T12:37:04.062Z,11.5815
2023-04-19T12:38:05.017Z,11.5036
2023-04-19T12:39:06.098Z,11.4834
2023-04-19T12:40:07.113Z,11.4096